createdAt,value
2018-04-17T00:00:16.655Z,92.50
2018-04-17T00:02:44.773Z,92.40
2018-04-17T00:05:12.910Z,92.20
2018-04-17T00:07:41.036Z,92.30
2018-04-17T00:10:10.000Z,92.50
2018-04-17T00:12:38.113Z,92.50
2018-04-17T00:15:06.264Z,92.60
2018-04-17T00:17:34.370Z,92.20
2018-04-17T00:20:02.480Z,92.20
2018-04-17T00:22:30.620Z,92.00
2018-04-17T00:24:58.756Z,91.90
2018-04-17T00:27:27.664Z,91.70
2018-04-17T00:29:56.540Z,91.70
2018-04-17T00:32:25.459Z,91.40
2018-04-17T00:34:53.574Z,91.40
2018-04-17T00:37:22.479Z,91.40
2018-04-17T00:39:50.599Z,91.40
2018-04-17T00:42:18.743Z,91.30
2018-04-17T00:44:47.617Z,91.20
2018-04-17T00:47:15.750Z,91.00
2018-04-17T00:49:43.875Z,91.20
2018-04-17T00:52:12.771Z,91.60
2018-04-17T00:54:41.654Z,91.40
2018-04-17T00:57:09.795Z,91.40
2018-04-17T00:59:37.897Z,91.60
2018-04-17T01:02:06.047Z,91.60
2018-04-17T01:04:34.174Z,91.70
2018-04-17T01:07:02.325Z,91.70
2018-04-17T01:09:30.433Z,91.70
2018-04-17T01:11:58.575Z,91.50
2018-04-17T01:14:27.474Z,91.20
2018-04-17T01:16:56.387Z,91.00
2018-04-17T01:19:24.510Z,91.00
2018-04-17T01:21:52.650Z,90.80
2018-04-17T01:24:20.773Z,90.60
2018-04-17T01:26:48.919Z,91.10
2018-04-17T01:29:17.027Z,91.30
2018-04-17T01:31:45.935Z,91.10
2018-04-17T01:34:14.054Z,91.10
2018-04-17T01:36:42.194Z,91.10
2018-04-17T01:39:10.297Z,91.20
2018-04-17T01:41:38.436Z,91.30
2018-04-17T01:44:06.540Z,91.30
2018-04-17T01:46:34.676Z,91.10
2018-04-17T01:49:02.855Z,90.60
2018-04-17T01:51:31.010Z,91.00
2018-04-17T01:53:59.889Z,91.40
2018-04-17T01:56:28.028Z,91.30
2018-04-17T01:58:56.231Z,91.20
2018-04-17T02:01:24.371Z,91.10
2018-04-17T02:03:52.497Z,91.00
2018-04-17T02:06:21.412Z,91.00
2018-04-17T02:08:49.525Z,91.00
2018-04-17T02:11:17.666Z,91.00
2018-04-17T02:13:45.778Z,90.90
2018-04-17T02:16:14.350Z,91.20
2018-04-17T02:18:42.451Z,91.50
2018-04-17T02:21:10.588Z,91.70
2018-04-17T02:23:39.466Z,91.70
2018-04-17T02:26:07.603Z,91.70
2018-04-17T02:28:36.493Z,91.20
2018-04-17T02:31:05.388Z,90.90
2018-04-17T02:33:34.270Z,91.00
2018-04-17T02:36:03.225Z,90.80
2018-04-17T02:38:31.341Z,91.10
2018-04-17T02:41:00.239Z,91.10
2018-04-17T02:43:28.348Z,91.10
2018-04-17T02:45:56.491Z,91.30
2018-04-17T02:48:24.607Z,92.00
2018-04-17T02:50:53.217Z,92.10
2018-04-17T02:53:21.315Z,91.90
2018-04-17T02:55:49.429Z,91.90
2018-04-17T02:58:17.566Z,92.10
2018-04-17T03:00:45.690Z,92.40
2018-04-17T03:03:13.813Z,92.20
2018-04-17T03:05:41.927Z,92.00
2018-04-17T03:08:10.055Z,91.90
2018-04-17T03:10:38.178Z,92.10
2018-04-17T03:13:06.311Z,92.30
2018-04-17T03:15:34.421Z,92.10
2018-04-17T03:18:02.664Z,92.40
2018-04-17T03:20:30.782Z,92.10
2018-04-17T03:22:58.918Z,92.50
2018-04-17T03:25:27.035Z,92.50
2018-04-17T03:27:55.179Z,92.30
2018-04-17T03:30:23.292Z,92.20
2018-04-17T03:32:52.191Z,92.20
2018-04-17T03:35:21.061Z,92.10
2018-04-17T03:37:49.189Z,92.10
2018-04-17T03:40:17.298Z,92.10
2018-04-17T03:42:45.435Z,92.40
2018-04-17T03:45:13.551Z,92.40
2018-04-17T03:47:41.674Z,92.20
2018-04-17T03:50:09.781Z,92.40
2018-04-17T03:52:37.911Z,92.40
2018-04-17T03:55:06.030Z,92.50
2018-04-17T03:57:34.159Z,92.40
2018-04-17T04:00:02.265Z,92.20
2018-04-17T04:02:35.089Z,91.70
2018-04-17T04:05:03.965Z,91.80
2018-04-17T04:07:32.100Z,91.80
2018-04-17T04:10:00.205Z,91.60
2018-04-17T04:12:28.329Z,91.70
2018-04-17T04:14:56.434Z,92.00
2018-04-17T04:17:36.502Z,92.00
2018-04-17T04:20:16.518Z,92.20
2018-04-17T04:22:56.403Z,92.20
2018-04-17T04:25:36.985Z,92.10
2018-04-17T04:28:05.120Z,92.00
2018-04-17T04:30:33.227Z,92.00
2018-04-17T04:33:01.349Z,92.30
2018-04-17T04:35:30.332Z,92.00
2018-04-17T04:37:58.460Z,92.80
2018-04-17T04:40:26.562Z,92.60
2018-04-17T04:42:54.706Z,92.30
2018-04-17T04:45:22.810Z,92.20
2018-04-17T04:47:50.929Z,91.70
2018-04-17T04:50:19.035Z,91.20
2018-04-17T04:52:47.930Z,91.60
2018-04-17T04:55:16.937Z,91.80
2018-04-17T04:57:45.078Z,91.80
2018-04-17T05:00:13.186Z,91.90
2018-04-17T05:02:41.328Z,92.10
2018-04-17T05:05:09.501Z,92.30
2018-04-17T05:07:37.622Z,92.60
2018-04-17T05:10:05.730Z,93.00
2018-04-17T05:12:33.857Z,93.10
2018-04-17T05:15:02.044Z,92.90
2018-04-17T05:17:30.170Z,93.30
2018-04-17T05:19:58.272Z,93.30
2018-04-17T05:22:26.415Z,93.10
2018-04-17T05:24:54.517Z,92.90
2018-04-17T05:27:23.423Z,92.20
2018-04-17T05:29:51.539Z,92.20
2018-04-17T05:32:19.678Z,91.40
2018-04-17T05:34:47.790Z,91.00
2018-04-17T05:37:15.905Z,90.70
2018-04-17T05:39:44.055Z,90.20
2018-04-17T05:42:12.473Z,90.40
2018-04-17T05:44:40.710Z,90.20
2018-04-17T05:47:08.842Z,89.00
2018-04-17T05:49:37.758Z,83.50
2018-04-17T05:52:05.878Z,83.50
2018-04-17T05:54:34.020Z,83.00
2018-04-17T05:57:02.124Z,80.10
2018-04-17T05:59:30.257Z,79.20
2018-04-17T06:01:58.567Z,77.60
2018-04-17T06:04:27.462Z,76.10
2018-04-17T06:06:56.342Z,73.60
2018-04-17T06:09:25.246Z,72.70
2018-04-17T06:11:53.375Z,72.70
2018-04-17T06:14:21.522Z,71.10
2018-04-17T06:16:49.624Z,68.70
2018-04-17T06:21:47.148Z,60.90
2018-04-17T06:24:15.287Z,62.40
2018-04-17T06:26:43.397Z,64.90
2018-04-17T06:41:38.486Z,44.70
2018-04-17T06:44:07.364Z,43.00
2018-04-17T06:46:35.583Z,43.00
2018-04-17T06:49:04.557Z,42.10
2018-04-17T06:51:32.680Z,42.70
2018-04-17T06:54:01.218Z,41.50
2018-04-17T06:56:30.188Z,41.00
2018-04-17T06:58:58.512Z,39.20
